Flight Track Log - Related Links

Times and Time Zones

All times are in EDT time to prevent confusion due to time zone crossing. See the FLG3735 flight status page for this flight to view local times or setup timezone preferences in your user account.

Time Position Orientation Groundspeed Altitude Reporting Facility
EDT Latitude Longitude Course Direction KTS MPH feet Rate Location/Type
Thu 10:17:28 PM 42.2375 -83.3317 31° Northeast 159 183 1,500  Level Cleveland Center
Thu 10:18:41 PM 42.2928 -83.2864 31° Northeast 208 239 3,900 1,746 Climbing Cleveland Center
Thu 10:19:42 PM 42.3525 -83.2356 32° Northeast 281 323 5,400 1,930 Climbing Cleveland Center
Thu 10:20:36 PM 42.3958 -83.1614 52° Northeast 294 338 7,600 2,234 Climbing Cleveland Center
Thu 10:21:16 PM 42.3786 -83.0961 110° East 281 323 8,900 1,980 Climbing Cleveland Center
Thu 10:22:16 PM 42.3494 -82.9994 112° Southeast 318 366 10,900 1,600 Climbing Cleveland Center
Thu 10:23:16 PM 42.3225 -82.8803 107° East 330 380 12,100 1,250 Climbing Cleveland Center
Thu 10:24:16 PM 42.2939 -82.7503 107° East 341 392 13,400 1,300 Climbing Cleveland Center
Thu 10:25:16 PM 42.2608 -82.6144 108° East 359 413 14,700 1,400 Climbing Cleveland Center
Thu 10:26:16 PM 42.2300 -82.4761 107° East 379 436 16,200 1,450 Climbing Cleveland Center
Thu 10:27:16 PM 42.2156 -82.3325 98° East 379 436 17,600 1,250 Climbing Cleveland Center
Thu 10:28:16 PM 42.2406 -82.1819 77° East 379 436 18,700 900 Climbing Cleveland Center
Thu 10:29:16 PM 42.2719 -82.0169 76° East 398 458 19,400 700 Climbing Cleveland Center
Thu 10:30:16 PM 42.3008 -81.8578 76° East 413 475 20,100 750 Climbing Cleveland Center
Thu 10:31:16 PM 42.3297 -81.7011 76° East 429 494 20,900 750 Climbing Cleveland Center
Thu 10:32:16 PM 42.3561 -81.5356 78° East 436 502 21,600 700 Climbing Cleveland Center
Thu 10:33:16 PM 42.3886 -81.3731 75° East 441 507 22,300 700 Climbing Cleveland Center
Thu 10:34:16 PM 42.4169 -81.2047 77° East 449 517 23,000 650 Climbing Cleveland Center
Thu 10:35:16 PM 42.4406 -81.0586 78° East 454 522 23,600 550 Climbing Cleveland Center
Thu 10:36:16 PM 42.4722 -80.8872 76° East 454 522 24,100 500 Climbing Cleveland Center
Thu 10:37:16 PM 42.4997 -80.7128 78° East 454 522 24,600 500 Climbing Cleveland Center
Thu 10:38:16 PM 42.5289 -80.5408 77° East 465 535 25,100 500 Climbing Cleveland Center
Thu 10:39:16 PM 42.5581 -80.3717 77° East 466 536 25,600 550 Climbing Cleveland Center
Thu 10:40:16 PM 42.5847 -80.1939 78° East 471 542 26,200 550 Climbing Cleveland Center
Thu 10:41:16 PM 42.6172 -80.0019 77° East 466 536 26,700 500 Climbing Cleveland Center
Thu 10:42:16 PM 42.6494 -79.8294 76° East 471 542 27,200 500 Climbing Cleveland Center
Thu 10:43:16 PM 42.6775 -79.6542 78° East 471 542 27,700 504 Climbing Cleveland Center
Thu 10:44:15 PM 42.7008 -79.4814 80° East 471 542 28,200 504 Climbing Cleveland Center
Thu 10:45:15 PM 42.7303 -79.3056 77° East 471 542 28,700 397 Climbing Cleveland Center
Thu 10:46:16 PM 42.7553 -79.1297 79° East 471 542 29,000 150 Climbing Cleveland Center
Thu 10:47:15 PM 42.7842 -78.9508 78° East 471 542 29,000  Level Cleveland Center
Thu 10:48:16 PM 42.8106 -78.7661 79° East 476 548 29,000  Level Cleveland Center
Thu 10:49:16 PM 42.8367 -78.5814 79° East 487 560 29,000  Level Cleveland Center
Thu 10:50:16 PM 42.8647 -78.3964 78° East 492 566 29,000  Level Cleveland Center
Thu 10:51:16 PM 42.8922 -78.2083 79° East 492 566 29,000  Level Cleveland Center
Thu 10:52:16 PM 42.9194 -78.0175 79° East 502 578 29,000  Level Cleveland Center
Thu 10:53:16 PM 42.9464 -77.8261 79° East 507 583 29,000  Level Cleveland Center
Thu 10:54:16 PM 42.9728 -77.6322 79° East 507 583 29,000  Level Cleveland Center
Thu 10:55:49 PM 42.9967 -77.3550 83° East 521 600 29,000  Level Boston Center
Thu 10:56:51 PM 42.9864 -77.1583 94° East 515 593 29,000  Level Boston Center
Thu 10:57:51 PM 42.9753 -76.9672 94° East 515 593 29,000  Level Boston Center
Thu 10:58:48 PM 42.9622 -76.7703 95° East 515 593 29,000  Level Boston Center
Thu 10:59:48 PM 42.9511 -76.5567 94° East 515 593 29,000  Level Boston Center
Thu 11:00:49 PM 42.9392 -76.3658 95° East 515 593 29,000 -99 Level Boston Center
Thu 11:01:49 PM 42.9250 -76.1719 96° East 515 593 28,800 -605 Descending Boston Center
Thu 11:02:48 PM 42.9142 -75.9814 94° East 509 586 27,800 -1,000 Descending Boston Center
Thu 11:03:49 PM 42.9011 -75.7933 95° East 499 574 26,800 -992 Descending Boston Center
Thu 11:04:49 PM 42.8878 -75.6114 96° East 494 568 25,800 -1,008 Descending Boston Center
Thu 11:05:48 PM 42.8739 -75.4319 96° East 484 557 24,800 -1,736 Descending Boston Center
Thu 11:06:50 PM 42.8617 -75.2531 95° East 484 557 22,300 -2,439 Descending Boston Center
Thu 11:07:51 PM 42.8511 -75.0853 95° East 466 536 19,800 -2,500 Descending Boston Center
Thu 11:08:50 PM 42.8381 -74.9233 96° East 449 517 17,300 -2,471 Descending Boston Center
Thu 11:09:50 PM 42.8267 -74.7756 96° East 407 468 14,900 -2,188 Descending Boston Center
Thu 11:10:26 PM 42.8219 -74.6933 94° East 371 427 13,800 -2,139 Descending Boston Center
Thu 11:11:31 PM 42.8103 -74.5403 96° East 349 402 11,300 -1,476 Descending Boston Center
Thu 11:12:32 PM 42.8106 -74.4156 90° East 328 377 10,700 -976 Descending Boston Center
Thu 11:13:34 PM 42.8333 -74.3031 75° East 297 342 9,300 -1,636 Descending Boston Center
Thu 11:14:33 PM 42.8536 -74.1961 75° East 285 328 7,400 -1,900 Descending Boston Center
Thu 11:15:34 PM 42.8742 -74.0889 75° East 289 333 5,500 -1,820 Descending Boston Center
Thu 11:16:35 PM 42.8942 -73.9847 75° East 287 330 3,700 -1,587 Descending Boston Center
Thu 11:17:35 PM 42.9122 -73.8858 76° East 256 295 2,300 -793 Descending Boston Center
Thu 11:18:36 PM 42.8881 -73.8203 117° Southeast 182 209 2,100 -148 Descending Boston Center
Thu 11:19:37 PM 42.8464 -73.8136 173° South 143 165 2,000 -397 Descending Boston Center
Thu 11:20:37 PM 42.8089 -73.8100 176° South 116 133 1,300 -639 Descending Boston Center
Thu 11:21:39 PM 42.7736 -73.8092 179° South 125 144 700 -581 Descending Boston Center

Login

Don't have an account? Register now (free) for customized features, flight alerts, and more!